createdAt,value
2018-06-23T00:01:54.311Z,13.30
2018-06-23T00:04:33.664Z,13.20
2018-06-23T00:07:34.522Z,13.20
2018-06-23T00:10:15.475Z,13.20
2018-06-23T00:16:16.986Z,13.20
2018-06-23T00:19:08.570Z,13.20
2018-06-23T00:25:41.955Z,13.10
2018-06-23T00:28:28.780Z,13.10
2018-06-23T00:31:48.524Z,13.00
2018-06-23T00:38:01.727Z,12.80
2018-06-23T00:40:46.399Z,12.70
2018-06-23T00:43:25.810Z,12.70
2018-06-23T00:46:14.099Z,12.70
2018-06-23T00:51:33.929Z,12.70
2018-06-23T00:54:13.379Z,12.70
2018-06-23T00:56:51.732Z,12.70
2018-06-23T00:59:36.880Z,12.70
2018-06-23T01:02:11.293Z,12.60
2018-06-23T01:04:46.547Z,12.60
2018-06-23T01:07:21.080Z,12.60
2018-06-23T01:09:55.283Z,12.60
2018-06-23T01:12:29.515Z,12.60
2018-06-23T01:17:37.451Z,12.60
2018-06-23T01:20:11.676Z,12.60
2018-06-23T01:22:45.896Z,12.60
2018-06-23T01:25:20.095Z,12.60
2018-06-23T01:27:54.288Z,12.60
2018-06-23T01:33:02.215Z,12.60
2018-06-23T01:35:36.462Z,12.60
2018-06-23T01:38:10.720Z,12.50
2018-06-23T01:40:44.950Z,12.60
2018-06-23T01:43:19.180Z,12.60
2018-06-23T01:45:54.459Z,12.50
2018-06-23T01:48:28.663Z,12.60
2018-06-23T01:51:02.857Z,12.60
2018-06-23T01:53:37.091Z,12.50
2018-06-23T01:56:11.291Z,12.60
2018-06-23T01:58:45.540Z,12.60
2018-06-23T02:01:19.780Z,12.60
2018-06-23T02:03:53.978Z,12.60
2018-06-23T02:06:28.600Z,12.70
2018-06-23T02:09:02.936Z,12.70
2018-06-23T02:14:16.510Z,12.60
2018-06-23T02:16:55.934Z,12.60
2018-06-23T02:19:36.272Z,12.60
2018-06-23T02:24:54.572Z,12.60
2018-06-23T02:27:33.919Z,12.70
2018-06-23T02:30:15.668Z,12.70
2018-06-23T02:32:53.862Z,12.80
2018-06-23T02:35:29.226Z,12.80
2018-06-23T02:38:03.417Z,12.80
2018-06-23T02:40:37.607Z,12.80
2018-06-23T02:43:12.850Z,12.80
2018-06-23T02:45:47.073Z,12.80
2018-06-23T02:48:21.304Z,12.90
2018-06-23T02:53:30.300Z,12.90
2018-06-23T02:56:04.525Z,12.80
2018-06-23T02:58:38.738Z,12.90
2018-06-23T03:01:12.923Z,12.90
2018-06-23T03:03:50.202Z,12.90
2018-06-23T03:06:24.503Z,12.90
2018-06-23T03:08:58.711Z,12.90
2018-06-23T03:11:32.931Z,12.80
2018-06-23T03:14:07.152Z,12.80
2018-06-23T03:16:42.442Z,12.80
2018-06-23T03:19:17.683Z,12.80
2018-06-23T03:21:51.936Z,12.80
2018-06-23T03:24:27.155Z,12.90
2018-06-23T03:27:01.366Z,12.80
2018-06-23T03:32:09.879Z,12.90
2018-06-23T03:34:44.124Z,12.90
2018-06-23T03:37:19.357Z,13.00
2018-06-23T03:39:54.604Z,13.00
2018-06-23T03:42:28.807Z,13.10
2018-06-23T03:47:37.863Z,13.10
2018-06-23T03:50:12.111Z,13.10
2018-06-23T03:52:46.353Z,13.10
2018-06-23T03:55:20.567Z,13.10
2018-06-23T03:57:54.855Z,13.10
2018-06-23T04:00:29.023Z,13.10
2018-06-23T04:03:03.239Z,13.10
2018-06-23T04:05:38.215Z,13.10
2018-06-23T04:08:12.464Z,13.10
2018-06-23T04:10:46.784Z,13.10
2018-06-23T04:13:21.076Z,13.00
2018-06-23T04:15:56.293Z,13.00
2018-06-23T04:18:30.533Z,13.10
2018-06-23T04:21:04.754Z,13.20
2018-06-23T04:23:40.004Z,13.20
2018-06-23T04:31:22.692Z,13.40
2018-06-23T04:33:56.977Z,13.40
2018-06-23T04:36:31.189Z,13.50
2018-06-23T04:39:07.541Z,13.50
2018-06-23T04:44:15.504Z,13.70
2018-06-23T04:46:49.741Z,13.90
2018-06-23T04:49:23.943Z,14.00
2018-06-23T04:51:59.175Z,14.30
2018-06-23T04:54:34.032Z,16.00
2018-06-23T04:57:08.768Z,17.90
2018-06-23T04:59:43.579Z,18.00
2018-06-23T05:02:33.247Z,17.50
2018-06-23T05:07:43.056Z,17.10
2018-06-23T05:10:17.840Z,17.20
2018-06-23T05:12:52.640Z,18.30
2018-06-23T05:15:28.446Z,19.80
2018-06-23T05:18:03.207Z,21.30
2018-06-23T05:20:38.984Z,22.30
2018-06-23T05:25:49.035Z,22.50
2018-06-23T05:28:23.832Z,21.30
2018-06-23T05:30:58.622Z,19.80
2018-06-23T05:33:33.392Z,18.80
2018-06-23T05:36:09.179Z,18.30
2018-06-23T05:38:43.915Z,17.70
2018-06-23T05:41:19.688Z,17.60
2018-06-23T05:43:54.422Z,17.40
2018-06-23T05:46:29.199Z,18.10
2018-06-23T05:49:06.048Z,18.80
2018-06-23T05:51:41.824Z,18.80
2018-06-23T05:54:18.632Z,19.40
2018-06-23T05:57:01.072Z,19.80
2018-06-23T05:59:35.889Z,20.20
2018-06-23T06:02:11.138Z,20.60
2018-06-23T06:04:45.980Z,20.10
2018-06-23T06:07:21.734Z,20.10
2018-06-23T06:09:56.507Z,19.90
2018-06-23T06:12:32.332Z,19.40
2018-06-23T06:15:08.151Z,19.80
2018-06-23T06:17:42.894Z,20.70
2018-06-23T06:20:17.728Z,21.00
2018-06-23T06:22:52.541Z,20.10
2018-06-23T06:25:29.413Z,18.90
2018-06-23T06:28:04.191Z,18.50
2018-06-23T06:30:38.969Z,18.20
2018-06-23T06:33:13.761Z,18.50
2018-06-23T06:35:50.407Z,18.70
2018-06-23T06:38:26.383Z,18.60
2018-06-23T06:41:01.137Z,18.20
2018-06-23T06:43:35.915Z,17.70
2018-06-23T06:48:44.966Z,17.00
2018-06-23T06:53:54.060Z,16.60
2018-06-23T06:56:32.524Z,16.50
2018-06-23T06:59:16.560Z,16.40
2018-06-23T07:01:53.211Z,16.40
2018-06-23T07:04:34.706Z,16.40
2018-06-23T07:13:01.873Z,17.00
2018-06-23T07:15:36.763Z,17.40
2018-06-23T07:20:49.919Z,18.40
2018-06-23T07:26:35.105Z,20.60
2018-06-23T07:29:09.955Z,20.80
2018-06-23T07:31:45.750Z,20.30
2018-06-23T07:34:20.537Z,19.50
2018-06-23T07:36:55.504Z,19.40
2018-06-23T07:42:04.932Z,18.90
2018-06-23T07:44:40.752Z,18.60
2018-06-23T07:47:15.582Z,19.00
2018-06-23T07:49:50.428Z,18.80
2018-06-23T07:52:25.267Z,19.10
2018-06-23T07:55:00.106Z,19.30
2018-06-23T07:57:34.856Z,19.80
2018-06-23T08:00:09.617Z,20.60
2018-06-23T08:05:21.439Z,20.00
2018-06-23T08:07:56.213Z,19.50
2018-06-23T08:10:30.965Z,19.10
2018-06-23T08:13:05.786Z,18.50
2018-06-23T08:15:40.564Z,18.40
2018-06-23T08:18:16.517Z,19.70
2018-06-23T08:20:51.424Z,19.60
2018-06-23T08:23:26.211Z,19.60
2018-06-23T08:26:01.000Z,19.80
2018-06-23T08:28:37.326Z,19.80
2018-06-23T08:31:12.128Z,19.60
2018-06-23T08:33:46.928Z,19.70
2018-06-23T08:36:21.735Z,19.80
2018-06-23T08:38:56.531Z,20.20
2018-06-23T08:41:32.296Z,20.20
2018-06-23T08:44:07.080Z,20.10
2018-06-23T08:46:41.880Z,20.20
2018-06-23T08:49:16.732Z,20.50
2018-06-23T08:51:51.639Z,20.10
2018-06-23T08:54:26.583Z,19.80
2018-06-23T09:02:34.353Z,21.20
2018-06-23T09:05:10.610Z,21.10
2018-06-23T09:07:45.446Z,20.70
2018-06-23T09:10:25.468Z,20.00
2018-06-23T09:13:03.040Z,19.40
2018-06-23T09:15:41.483Z,20.00
2018-06-23T09:18:31.674Z,21.00
2018-06-23T09:21:18.359Z,21.50
2018-06-23T09:26:28.449Z,22.10
2018-06-23T09:29:11.941Z,22.40
2018-06-23T09:31:47.827Z,22.70
2018-06-23T09:34:22.669Z,22.70
2018-06-23T09:36:58.175Z,22.90
2018-06-23T09:42:07.280Z,22.00
2018-06-23T09:44:42.038Z,21.60
2018-06-23T09:47:18.258Z,21.50
2018-06-23T09:49:53.006Z,21.00
2018-06-23T09:52:27.795Z,20.60
2018-06-23T09:55:02.604Z,20.90
2018-06-23T09:57:37.359Z,20.90
2018-06-23T10:00:16.375Z,21.30
2018-06-23T10:03:32.752Z,21.70
2018-06-23T10:06:07.865Z,21.60
2018-06-23T10:08:43.673Z,21.90
2018-06-23T10:11:18.465Z,21.90
2018-06-23T10:13:53.269Z,22.20
2018-06-23T10:16:28.087Z,22.20
2018-06-23T10:19:02.939Z,22.00
2018-06-23T10:24:12.238Z,21.20
2018-06-23T10:29:21.328Z,21.10
2018-06-23T10:31:56.113Z,21.40
2018-06-23T10:34:30.883Z,21.50
2018-06-23T10:37:06.040Z,21.50
2018-06-23T10:39:40.909Z,21.30
2018-06-23T10:42:16.688Z,21.50
2018-06-23T10:44:52.516Z,21.50
2018-06-23T10:47:27.277Z,21.40
2018-06-23T10:55:10.437Z,22.20
2018-06-23T11:00:19.643Z,21.60
2018-06-23T11:03:01.220Z,21.50
2018-06-23T11:05:35.979Z,21.00
2018-06-23T11:08:10.703Z,20.70
2018-06-23T11:10:48.707Z,20.30
2018-06-23T11:13:23.532Z,20.00
2018-06-23T11:15:58.231Z,19.70
2018-06-23T11:18:34.066Z,19.60
2018-06-23T11:21:08.789Z,19.30
2018-06-23T11:23:44.547Z,19.10
2018-06-23T11:26:19.308Z,19.10
2018-06-23T11:28:55.040Z,19.30
2018-06-23T11:31:29.785Z,19.30
2018-06-23T11:34:04.640Z,19.40
2018-06-23T11:39:14.604Z,18.90
2018-06-23T11:41:49.347Z,18.90
2018-06-23T11:44:25.082Z,18.90
2018-06-23T11:49:35.120Z,19.30
2018-06-23T11:52:09.900Z,19.50
2018-06-23T11:54:44.648Z,19.80
2018-06-23T11:57:19.452Z,20.50
2018-06-23T11:59:54.208Z,20.70
2018-06-23T12:02:28.984Z,21.20
2018-06-23T12:05:03.768Z,21.40
2018-06-23T12:07:38.480Z,21.40
2018-06-23T12:10:13.229Z,21.30
2018-06-23T12:12:47.904Z,21.10
2018-06-23T12:15:22.666Z,20.80
2018-06-23T12:17:57.429Z,20.60
2018-06-23T12:23:06.609Z,20.60
2018-06-23T12:25:42.350Z,20.60
2018-06-23T12:28:17.069Z,20.50
2018-06-23T12:30:51.819Z,20.20
2018-06-23T12:33:26.600Z,20.10
2018-06-23T12:36:01.340Z,20.10
2018-06-23T12:41:10.276Z,20.20
2018-06-23T12:43:45.045Z,20.10
2018-06-23T12:46:19.769Z,19.90
2018-06-23T12:48:54.788Z,19.70
2018-06-23T12:51:32.761Z,19.70
2018-06-23T12:56:50.084Z,19.70
2018-06-23T12:59:24.800Z,19.80
2018-06-23T13:01:59.583Z,19.80
2018-06-23T13:04:34.287Z,19.80
2018-06-23T13:07:09.029Z,19.80
2018-06-23T13:09:44.745Z,20.00
2018-06-23T13:14:53.750Z,20.00
2018-06-23T13:17:28.520Z,19.80
2018-06-23T13:20:04.351Z,19.80
2018-06-23T13:22:39.132Z,19.90
2018-06-23T13:25:13.891Z,19.80
2018-06-23T13:27:48.695Z,19.70
2018-06-23T13:30:23.438Z,19.80
2018-06-23T13:32:58.223Z,19.80
2018-06-23T13:35:32.899Z,19.80
2018-06-23T13:38:07.669Z,19.60
2018-06-23T13:40:42.413Z,19.40
2018-06-23T13:43:17.477Z,19.40
2018-06-23T13:45:52.199Z,19.20
2018-06-23T13:48:26.921Z,19.10
2018-06-23T13:51:01.884Z,19.00
2018-06-23T13:53:36.622Z,18.90
2018-06-23T13:58:45.611Z,19.10
2018-06-23T14:01:20.408Z,19.10
2018-06-23T14:03:56.218Z,19.10
2018-06-23T14:06:30.920Z,19.10
2018-06-23T14:09:08.896Z,19.00
2018-06-23T14:11:43.622Z,19.20
2018-06-23T14:14:18.427Z,19.10
2018-06-23T14:16:53.140Z,19.00
2018-06-23T14:19:27.903Z,18.90
2018-06-23T14:22:02.683Z,19.00
2018-06-23T14:24:37.526Z,19.10
2018-06-23T14:27:12.666Z,19.20
2018-06-23T14:29:48.483Z,19.20
2018-06-23T14:32:24.199Z,19.00
2018-06-23T14:34:59.124Z,18.80
2018-06-23T14:37:34.208Z,18.70
2018-06-23T14:40:09.054Z,18.60
2018-06-23T14:42:43.953Z,18.70
2018-06-23T14:45:18.727Z,18.70
2018-06-23T14:50:28.742Z,18.30
2018-06-23T14:53:03.436Z,18.40
2018-06-23T14:55:38.235Z,18.40
2018-06-23T15:03:22.535Z,18.80
2018-06-23T15:05:58.411Z,18.80
2018-06-23T15:08:44.117Z,18.60
2018-06-23T15:11:29.944Z,18.60
2018-06-23T15:19:13.159Z,18.60
2018-06-23T15:21:48.942Z,18.50
2018-06-23T15:24:23.628Z,18.50
2018-06-23T15:26:59.404Z,18.50
2018-06-23T15:29:34.099Z,18.40
2018-06-23T15:32:09.855Z,18.50
2018-06-23T15:34:44.611Z,18.50
2018-06-23T15:37:20.348Z,18.40
2018-06-23T15:39:55.040Z,18.50
2018-06-23T15:42:29.770Z,18.40
2018-06-23T15:45:04.575Z,18.30
2018-06-23T15:47:39.343Z,18.30
2018-06-23T15:50:14.085Z,18.20
2018-06-23T15:52:48.819Z,18.20
2018-06-23T15:55:23.499Z,18.10
2018-06-23T15:57:58.236Z,18.00
2018-06-23T16:00:32.955Z,17.90
2018-06-23T16:03:07.706Z,17.80
2018-06-23T16:05:42.475Z,17.80
2018-06-23T16:08:17.239Z,17.80
2018-06-23T16:10:51.956Z,17.70
2018-06-23T16:13:26.687Z,17.70
2018-06-23T16:16:01.420Z,17.60
2018-06-23T16:18:36.190Z,17.50
2018-06-23T16:21:10.945Z,17.60
2018-06-23T16:23:45.716Z,17.40
2018-06-23T16:26:20.414Z,17.30
2018-06-23T16:28:55.175Z,17.20
2018-06-23T16:31:29.842Z,16.90
2018-06-23T16:34:04.590Z,16.90
2018-06-23T16:36:39.720Z,16.70
2018-06-23T16:39:14.491Z,16.70
2018-06-23T16:41:49.222Z,16.60
2018-06-23T16:44:24.101Z,16.50
2018-06-23T16:46:58.831Z,16.40
2018-06-23T16:49:33.522Z,16.40
2018-06-23T16:52:08.248Z,16.50
2018-06-23T16:57:18.228Z,17.00
2018-06-23T16:59:52.992Z,17.20
2018-06-23T17:02:28.923Z,17.30
2018-06-23T17:05:03.672Z,17.40
2018-06-23T17:07:38.402Z,17.40
2018-06-23T17:10:13.160Z,17.40
2018-06-23T17:12:48.904Z,17.40
2018-06-23T17:15:23.624Z,17.30
2018-06-23T17:17:58.370Z,17.30
2018-06-23T17:20:34.168Z,17.10
2018-06-23T17:23:09.348Z,17.00
2018-06-23T17:25:44.134Z,16.90
2018-06-23T17:28:18.824Z,16.80
2018-06-23T17:30:53.571Z,16.80
2018-06-23T17:33:28.491Z,16.90
2018-06-23T17:36:04.211Z,16.80
2018-06-23T17:38:38.939Z,16.70
2018-06-23T17:43:47.904Z,16.60
2018-06-23T17:46:22.709Z,16.60
2018-06-23T17:51:31.777Z,16.50
2018-06-23T17:54:06.530Z,16.50
2018-06-23T17:56:41.345Z,16.50
2018-06-23T17:59:16.100Z,16.50
2018-06-23T18:01:50.906Z,16.50
2018-06-23T18:04:25.624Z,16.40
2018-06-23T18:07:00.363Z,16.40
2018-06-23T18:09:35.063Z,16.40
2018-06-23T18:12:10.883Z,16.40
2018-06-23T18:14:45.716Z,16.40
2018-06-23T18:19:54.672Z,16.40
2018-06-23T18:22:30.505Z,16.40
2018-06-23T18:27:39.888Z,16.30
2018-06-23T18:30:14.601Z,16.30
2018-06-23T18:32:49.348Z,16.20
2018-06-23T18:35:24.045Z,16.20
2018-06-23T18:37:58.808Z,16.20
2018-06-23T18:40:33.532Z,16.20
2018-06-23T18:43:08.282Z,16.10
2018-06-23T18:45:43.104Z,16.10
2018-06-23T18:48:18.020Z,16.10
2018-06-23T18:50:52.872Z,16.00
2018-06-23T18:53:28.750Z,16.00
2018-06-23T18:56:04.129Z,15.90
2018-06-23T18:58:40.010Z,15.90
2018-06-23T19:01:14.949Z,15.80
2018-06-23T19:03:49.808Z,15.80
2018-06-23T19:06:24.670Z,15.80
2018-06-23T19:08:59.541Z,15.70
2018-06-23T19:11:33.920Z,15.70
2018-06-23T19:14:08.560Z,15.70
2018-06-23T19:16:43.251Z,15.70
2018-06-23T19:19:17.451Z,15.60
2018-06-23T19:21:51.628Z,15.60
2018-06-23T19:24:26.467Z,15.60
2018-06-23T19:27:00.637Z,15.60
2018-06-23T19:29:35.820Z,15.50
2018-06-23T19:32:10.522Z,15.50
2018-06-23T19:34:44.715Z,15.50
2018-06-23T19:37:19.414Z,15.50
2018-06-23T19:39:54.161Z,15.50
2018-06-23T19:42:29.914Z,15.40
2018-06-23T19:45:04.776Z,15.40
2018-06-23T19:47:38.934Z,15.30
2018-06-23T19:50:14.660Z,15.30
2018-06-23T19:55:23.088Z,15.20
2018-06-23T19:57:57.232Z,15.20
2018-06-23T20:00:32.431Z,15.10
2018-06-23T20:03:06.582Z,15.10
2018-06-23T20:05:41.324Z,15.20
2018-06-23T20:08:17.035Z,15.20
2018-06-23T20:10:51.435Z,15.20
2018-06-23T20:13:25.608Z,15.20
2018-06-23T20:18:34.408Z,15.10
2018-06-23T20:21:08.683Z,15.10
2018-06-23T20:23:43.436Z,15.10
2018-06-23T20:26:17.684Z,15.10
2018-06-23T20:28:52.462Z,15.10
2018-06-23T20:31:28.216Z,15.10
2018-06-23T20:34:03.275Z,15.10
2018-06-23T20:36:37.520Z,15.10
2018-06-23T20:39:19.443Z,15.10
2018-06-23T20:41:53.688Z,15.10
2018-06-23T20:44:28.387Z,15.00
2018-06-23T20:47:03.662Z,15.00
2018-06-23T20:49:37.811Z,15.00
2018-06-23T20:54:50.063Z,15.00
2018-06-23T20:57:25.142Z,15.00
2018-06-23T21:00:16.793Z,14.90
2018-06-23T21:06:07.060Z,14.90
2018-06-23T21:08:46.790Z,14.90
2018-06-23T21:11:25.708Z,14.90
2018-06-23T21:17:06.444Z,14.90
2018-06-23T21:19:42.750Z,14.90
2018-06-23T21:22:19.906Z,14.80
2018-06-23T21:25:06.495Z,14.80
2018-06-23T21:30:15.755Z,14.80
2018-06-23T21:32:53.024Z,14.80
2018-06-23T21:38:05.531Z,14.80
2018-06-23T21:40:43.211Z,14.80
2018-06-23T21:43:19.611Z,14.70
2018-06-23T21:48:27.942Z,14.70
2018-06-23T21:51:03.171Z,14.70
2018-06-23T21:53:38.305Z,14.70
2018-06-23T21:56:13.795Z,14.70
2018-06-23T21:58:49.080Z,14.70
2018-06-23T22:01:23.419Z,14.70
2018-06-23T22:04:01.726Z,14.70
2018-06-23T22:06:35.819Z,14.70
2018-06-23T22:09:12.499Z,14.70
2018-06-23T22:14:25.331Z,14.70
2018-06-23T22:19:37.888Z,14.70
2018-06-23T22:22:12.643Z,14.60
2018-06-23T22:24:46.807Z,14.60
2018-06-23T22:27:20.972Z,14.60
2018-06-23T22:29:55.187Z,14.60
2018-06-23T22:32:30.355Z,14.60
2018-06-23T22:35:04.649Z,14.50
2018-06-23T22:37:39.766Z,14.50
2018-06-23T22:40:14.985Z,14.50
2018-06-23T22:42:49.179Z,14.50
2018-06-23T22:45:23.401Z,14.50
2018-06-23T22:47:57.519Z,14.40
2018-06-23T22:50:31.703Z,14.50
2018-06-23T22:53:06.411Z,14.40
2018-06-23T22:55:40.615Z,14.40
2018-06-23T22:58:14.815Z,14.40
2018-06-23T23:00:49.023Z,14.40
2018-06-23T23:03:23.204Z,14.30
2018-06-23T23:05:57.465Z,14.40
2018-06-23T23:08:32.079Z,14.40
2018-06-23T23:11:06.297Z,14.40
2018-06-23T23:13:41.480Z,14.40
2018-06-23T23:16:15.674Z,14.30
2018-06-23T23:18:49.798Z,14.30
2018-06-23T23:21:25.011Z,14.30
2018-06-23T23:23:59.328Z,14.30
2018-06-23T23:26:33.555Z,14.30
2018-06-23T23:31:41.776Z,14.30
2018-06-23T23:34:15.932Z,14.30
2018-06-23T23:36:51.116Z,14.20
2018-06-23T23:39:26.301Z,14.20
2018-06-23T23:42:00.552Z,14.20
2018-06-23T23:44:34.731Z,14.20
2018-06-23T23:47:09.981Z,14.20
2018-06-23T23:49:44.115Z,14.20
2018-06-23T23:52:19.315Z,14.20
2018-06-23T23:54:53.497Z,14.10
